createdAt,value
2023-01-03T16:49:37.252Z,101138.22
2023-01-03T16:55:06.116Z,101138.50
2023-01-03T17:00:31.256Z,101138.25
2023-01-03T17:06:02.085Z,101133.28
2023-01-03T17:11:26.576Z,101129.94
2023-01-03T17:17:00.413Z,101141.69
2023-01-03T17:22:30.883Z,101144.66
2023-01-03T17:28:01.524Z,101151.84
2023-01-03T17:33:31.950Z,101141.03
2023-01-03T17:39:03.883Z,101148.31
2023-01-03T17:44:27.182Z,101148.56
2023-01-03T17:49:49.368Z,101152.31
2023-01-03T17:55:23.800Z,101142.91
2023-01-03T18:00:52.751Z,101156.25
2023-01-03T18:06:21.078Z,101155.50
2023-01-03T18:11:47.271Z,101159.22
2023-01-03T18:17:28.117Z,101161.75
2023-01-03T18:22:51.846Z,101169.28
2023-01-03T18:28:26.743Z,101165.84
2023-01-03T18:33:57.404Z,101169.66
2023-01-03T18:39:29.202Z,101172.25
2023-01-03T18:44:53.215Z,101183.47
2023-01-03T18:50:20.442Z,101181.25
2023-01-03T18:55:50.047Z,101181.13
2023-01-03T19:01:20.307Z,101178.81
2023-01-03T19:06:51.425Z,101177.41
2023-01-03T19:12:17.259Z,101173.84
2023-01-03T19:17:42.908Z,101177.53
2023-01-03T19:23:17.522Z,101178.44
2023-01-03T19:28:43.467Z,101181.41
2023-01-03T19:34:16.818Z,101186.06
2023-01-03T19:39:41.985Z,101191.94
2023-01-03T19:45:17.067Z,101194.81
2023-01-03T19:50:47.558Z,101191.94
2023-01-03T19:56:23.367Z,101192.19
2023-01-03T20:02:22.800Z,101196.66
2023-01-03T20:07:37.818Z,101189.97
2023-01-03T20:13:07.677Z,101189.78
2023-01-03T20:18:37.693Z,101188.56
2023-01-03T20:24:08.379Z,101189.22
2023-01-03T20:29:35.303Z,101186.13
2023-01-03T20:35:35.537Z,101185.09
2023-01-03T20:40:51.167Z,101191.81
2023-01-03T20:46:20.614Z,101204.59
2023-01-03T20:51:45.973Z,101206.53
2023-01-03T20:57:18.684Z,101212.41
2023-01-03T21:02:44.494Z,101209.97
2023-01-03T21:08:33.723Z,101209.97
2023-01-03T21:14:01.196Z,101214.25
2023-01-03T21:19:25.841Z,101215.06
2023-01-03T21:24:57.741Z,101210.50
2023-01-03T21:30:30.416Z,101214.13
2023-01-03T21:35:53.988Z,101213.91
2023-01-03T21:41:20.957Z,101217.63
2023-01-03T21:46:49.972Z,101214.25
2023-01-03T21:52:18.946Z,101222.41
2023-01-03T21:57:48.100Z,101214.97
2023-01-03T22:03:36.046Z,101208.91
2023-01-03T22:09:06.281Z,101204.22
2023-01-03T22:14:34.713Z,101214.38
2023-01-03T22:20:00.507Z,101213.06
2023-01-03T22:25:29.787Z,101213.91
2023-01-03T22:30:53.534Z,101212.38
2023-01-03T22:36:24.244Z,101210.03
2023-01-03T22:41:50.276Z,101218.50
2023-01-03T22:47:18.906Z,101212.56
2023-01-03T22:52:49.171Z,101209.44
2023-01-03T22:58:17.996Z,101210.75
2023-01-03T23:03:44.435Z,101211.41
2023-01-03T23:09:16.065Z,101202.47
2023-01-03T23:14:44.986Z,101206.56
2023-01-03T23:20:12.653Z,101196.59
2023-01-03T23:25:43.025Z,101198.28
2023-01-03T23:31:08.554Z,101199.16
2023-01-03T23:36:37.997Z,101202.38
2023-01-03T23:42:03.000Z,101209.44
2023-01-03T23:47:27.590Z,101206.09
2023-01-03T23:52:51.246Z,101212.81
2023-01-03T23:58:15.827Z,101212.50
